Time;durP1;ratioP1;P1;durP2;ratioP2;P2;SDS_P1;SDS_P2;PMS_P1;PMS_P2;Temp;Humidity;BMP_temperature;BMP_pressure;BME280_temperature;BME280_humidity;BME280_pressure;Samples;Min_cycle;Max_cycle;Signal;HPM_P1;HPM_P2
2024/01/13 00:00:03;;;;;;;17.53;8.60;;;;;;;-3.74;100.00;62510.41;5073708;28;20679;-52
2024/01/13 00:02:28;;;;;;;21.37;9.40;;;;;;;-3.73;100.00;62513.94;5091929;28;20291;-55
2024/01/13 00:04:54;;;;;;;17.07;8.97;;;;;;;-3.59;99.68;62526.56;5073644;28;20308;-51
2024/01/13 00:07:19;;;;;;;18.80;8.43;;;;;;;-3.50;99.51;62533.28;5092257;28;20219;-53
2024/01/13 00:09:45;;;;;;;23.60;10.67;;;;;;;-3.57;99.63;62528.19;5091942;28;20244;-53
2024/01/13 00:12:11;;;;;;;23.50;9.30;;;;;;;-3.65;99.09;62517.66;5092058;28;20248;-54
2024/01/13 00:14:37;;;;;;;17.00;8.50;;;;;;;-3.54;97.20;62531.44;5091692;28;20671;-53
2024/01/13 00:17:03;;;;;;;20.87;11.03;;;;;;;-3.57;97.32;62528.72;5073603;28;20642;-54
2024/01/13 00:19:29;;;;;;;19.27;8.77;;;;;;;-3.72;96.50;62512.56;5091763;28;20199;-54
2024/01/13 00:21:55;;;;;;;19.53;8.50;;;;;;;-3.70;97.18;62514.72;5091359;28;20216;-53
2024/01/13 00:24:20;;;;;;;16.80;7.83;;;;;;;-3.78;96.64;62508.56;5091512;28;20204;-56
2024/01/13 00:26:46;;;;;;;17.30;8.13;;;;;;;-3.78;94.98;62506.09;5073380;28;20727;-53
2024/01/13 00:29:12;;;;;;;18.87;8.27;;;;;;;-3.77;95.10;62504.16;5091285;28;20681;-53
2024/01/13 00:31:38;;;;;;;17.40;8.07;;;;;;;-3.74;93.71;62510.41;5091477;28;20655;-52
2024/01/13 00:34:03;;;;;;;17.07;7.17;;;;;;;-3.81;93.88;62502.31;5091578;28;21092;-51
2024/01/13 00:36:29;;;;;;;18.20;8.37;;;;;;;-3.83;93.99;62500.69;5091368;28;20241;-53
2024/01/13 00:38:55;;;;;;;15.87;6.73;;;;;;;-3.83;93.14;62503.16;5073105;28;20209;-52
2024/01/13 00:41:20;;;;;;;18.33;8.80;;;;;;;-3.76;93.72;62505.78;5091121;28;20220;-56
2024/01/13 00:43:47;;;;;;;16.53;8.50;;;;;;;-3.82;94.41;62501.78;5091255;28;20282;-52
2024/01/13 00:46:13;;;;;;;18.90;8.47;;;;;;;-3.76;94.09;62507.72;5091022;28;20340;-52
2024/01/13 00:48:39;;;;;;;21.80;8.97;;;;;;;-3.68;93.70;62516.88;5091024;28;20208;-53
2024/01/13 00:51:07;;;;;;;24.60;9.30;;;;;;;-3.76;94.26;62505.25;5091009;28;20194;-55
2024/01/13 00:53:33;;;;;;;16.10;8.73;;;;;;;-3.77;94.12;62504.72;5091263;28;20259;-53
2024/01/13 00:55:59;;;;;;;19.47;9.30;;;;;;;-3.69;95.12;62515.25;5091165;28;20181;-52
2024/01/13 00:58:25;;;;;;;19.53;9.33;;;;;;;-3.72;94.82;62512.03;5091098;28;20212;-53
2024/01/13 01:00:50;;;;;;;18.53;8.53;;;;;;;-3.87;95.38;62496.38;5091032;28;20180;-54
2024/01/13 01:03:16;;;;;;;17.37;7.90;;;;;;;-3.64;96.61;62521.19;5090883;28;20252;-54
2024/01/13 01:05:42;;;;;;;15.53;7.63;;;;;;;-3.77;94.80;62507.16;5091036;28;20589;-53
2024/01/13 01:08:07;;;;;;;15.87;8.07;;;;;;;-3.72;95.76;62514.47;5091001;28;20302;-52
2024/01/13 01:10:33;;;;;;;19.53;9.13;;;;;;;-3.53;95.41;62530.03;5090961;28;20183;-53
2024/01/13 01:12:59;;;;;;;17.37;8.37;;;;;;;-3.66;95.10;62519.03;5090847;28;20235;-55
2024/01/13 01:15:24;;;;;;;19.03;9.17;;;;;;;-3.57;94.98;62528.72;5090694;28;20184;-54
2024/01/13 01:17:50;;;;;;;20.77;9.77;;;;;;;-3.61;95.20;62521.94;5091567;28;20200;-53
2024/01/13 01:20:16;;;;;;;20.43;8.33;;;;;;;-3.68;95.89;62516.88;5094593;28;20603;-55
2024/01/13 01:22:41;;;;;;;22.37;10.53;;;;;;;-3.53;95.70;62535.50;5094991;28;20257;-56
2024/01/13 01:25:07;;;;;;;23.63;9.77;;;;;;;-3.56;94.54;62529.28;5076092;28;20217;-54
2024/01/13 01:27:33;;;;;;;19.00;8.53;;;;;;;-3.52;94.18;62534.13;5076121;28;20237;-55
2024/01/13 01:29:58;;;;;;;17.83;8.50;;;;;;;-3.50;95.69;62533.28;5094258;28;20187;-53
2024/01/13 01:32:24;;;;;;;18.63;8.30;;;;;;;-3.53;94.81;62533.03;5075889;28;20221;-53
2024/01/13 01:34:50;;;;;;;19.67;8.80;;;;;;;-3.45;94.28;62541.13;5093504;28;20187;-54
2024/01/13 01:37:15;;;;;;;21.47;9.67;;;;;;;-3.52;93.67;62536.59;5075435;28;20207;-53
2024/01/13 01:39:47;;;;;;;16.63;7.73;;;;;;;-3.50;93.90;62536.28;5059242;28;20182;-53
2024/01/13 01:42:13;;;;;;;18.40;8.77;;;;;;;-3.54;94.26;62529.50;5094835;28;20212;-53
2024/01/13 01:44:38;;;;;;;17.07;8.10;;;;;;;-3.63;94.44;62522.25;5075646;28;20207;-53
2024/01/13 01:47:06;;;;;;;18.37;8.93;;;;;;;-3.65;95.34;62519.56;5093850;28;20236;-55
2024/01/13 01:49:32;;;;;;;16.13;9.40;;;;;;;-3.65;95.32;62522.56;5093817;28;20191;-53
2024/01/13 01:51:57;;;;;;;20.87;9.83;;;;;;;-3.55;95.48;62530.88;5093971;28;20211;-52
2024/01/13 01:54:23;;;;;;;20.77;8.97;;;;;;;-3.54;94.25;62531.97;5093799;28;20186;-52
2024/01/13 01:56:49;;;;;;;19.23;9.07;;;;;;;-3.52;93.92;62534.13;5075502;28;20239;-52
2024/01/13 01:59:14;;;;;;;19.87;9.23;;;;;;;-3.38;95.28;62548.13;5093940;28;20221;-56
2024/01/13 02:01:40;;;;;;;19.70;9.07;;;;;;;-3.50;93.94;62535.75;5093905;28;20233;-53
2024/01/13 02:04:06;;;;;;;21.53;9.87;;;;;;;-3.34;94.85;62552.44;5093586;28;20263;-53
2024/01/13 02:06:31;;;;;;;19.80;9.27;;;;;;;-3.50;94.75;62533.81;5093758;28;20238;-54
2024/01/13 02:08:58;;;;;;;20.83;8.53;;;;;;;-3.48;94.10;62538.44;5075489;28;20563;-56
2024/01/13 02:11:23;;;;;;;22.77;10.20;;;;;;;-3.38;94.68;62546.22;5093660;28;20193;-52
2024/01/13 02:13:49;;;;;;;22.07;11.07;;;;;;;-3.38;94.71;62548.13;5075406;28;20787;-52
2024/01/13 02:16:16;;;;;;;20.93;10.13;;;;;;;-3.49;95.68;62534.88;5093501;28;20195;-54
2024/01/13 02:18:41;;;;;;;20.47;9.10;;;;;;;-3.52;95.81;62533.59;5093374;28;20236;-53
2024/01/13 02:21:07;;;;;;;23.33;10.30;;;;;;;-3.50;96.14;62538.19;5075356;28;20329;-53
2024/01/13 02:23:33;;;;;;;23.03;10.13;;;;;;;-3.65;95.72;62520.09;5093511;28;20210;-52
2024/01/13 02:25:59;;;;;;;16.93;8.60;;;;;;;-3.73;95.67;62509.03;5093352;28;20301;-52
2024/01/13 02:28:24;;;;;;;20.77;9.10;;;;;;;-3.67;95.84;62520.41;5092721;28;20686;-55
2024/01/13 02:30:50;;;;;;;22.90;10.37;;;;;;;-3.65;96.65;62519.56;5092744;28;20197;-54
2024/01/13 02:33:16;;;;;;;17.40;9.07;;;;;;;-3.63;97.06;62522.25;5093346;28;20217;-53
2024/01/13 02:35:41;;;;;;;22.83;10.00;;;;;;;-3.67;98.32;62517.41;5075058;28;20634;-52
2024/01/13 02:38:07;;;;;;;20.80;8.83;;;;;;;-3.74;99.03;62512.31;5093297;28;20225;-54
2024/01/13 02:40:33;;;;;;;22.67;9.97;;;;;;;-3.66;99.69;62519.03;5093228;28;20192;-53
2024/01/13 02:42:58;;;;;;;20.90;10.07;;;;;;;-3.65;99.73;62520.09;5093178;28;20260;-53
2024/01/13 02:45:24;;;;;;;17.90;9.50;;;;;;;-3.74;99.92;62512.88;5093070;28;20215;-54
2024/01/13 02:48:04;;;;;;;22.80;9.90;;;;;;;-3.64;100.00;62520.66;5093387;28;20225;-53
2024/01/13 02:50:30;;;;;;;22.87;9.43;;;;;;;-3.77;99.63;62506.63;5092938;28;20212;-54
2024/01/13 02:52:57;;;;;;;20.50;10.03;;;;;;;-3.66;100.00;62516.56;5093235;28;20316;-54
2024/01/13 02:55:22;;;;;;;19.90;9.40;;;;;;;-3.55;100.00;62532.78;5093014;28;20718;-53
2024/01/13 02:57:50;;;;;;;21.03;10.33;;;;;;;-3.60;100.00;62525.50;5093009;28;20235;-53
2024/01/13 03:00:17;;;;;;;18.83;9.17;;;;;;;-3.70;98.57;62511.72;5092835;28;20253;-53
2024/01/13 03:02:43;;;;;;;19.47;9.40;;;;;;;-3.60;100.00;62523.03;5093115;28;20237;-53
2024/01/13 03:05:10;;;;;;;22.80;9.93;;;;;;;-3.62;100.00;62523.34;5092686;28;20399;-56
2024/01/13 03:07:35;;;;;;;18.73;9.67;;;;;;;-3.56;100.00;62524.34;5093250;28;20206;-55
2024/01/13 03:10:01;;;;;;;21.00;10.83;;;;;;;-3.61;100.00;62521.94;5092838;28;20245;-54
2024/01/13 03:12:26;;;;;;;22.17;10.63;;;;;;;-3.53;100.00;62533.03;5092713;28;20259;-54
2024/01/13 03:14:52;;;;;;;24.53;11.03;;;;;;;-3.61;100.00;62523.88;5074790;28;20275;-56
2024/01/13 03:17:17;;;;;;;22.93;9.87;;;;;;;-3.44;100.00;62542.22;5074551;28;20216;-53
2024/01/13 03:19:43;;;;;;;22.43;10.57;;;;;;;-3.43;100.00;62543.81;5092690;28;20209;-53
2024/01/13 03:22:08;;;;;;;19.47;9.70;;;;;;;-3.55;100.00;62530.34;5074430;28;20736;-54
2024/01/13 03:24:34;;;;;;;20.03;10.03;;;;;;;-3.68;100.00;62516.34;5092586;28;20722;-51
2024/01/13 03:26:59;;;;;;;20.03;10.83;;;;;;;-3.68;100.00;62519.34;5092278;28;20216;-52
2024/01/13 03:29:25;;;;;;;18.80;9.60;;;;;;;-3.71;100.00;62513.63;5092565;28;20183;-52
2024/01/13 03:31:51;;;;;;;20.00;9.60;;;;;;;-3.74;100.00;62507.94;5074285;28;20272;-53
2024/01/13 03:34:16;;;;;;;22.60;10.07;;;;;;;-3.73;100.00;62511.47;5092355;28;20293;-52
2024/01/13 03:36:42;;;;;;;24.50;10.40;;;;;;;-3.80;100.00;62503.41;5092551;28;20197;-53
2024/01/13 03:39:09;;;;;;;22.47;10.63;;;;;;;-3.59;100.00;62523.56;5074187;28;20193;-54
2024/01/13 03:41:35;;;;;;;22.97;10.67;;;;;;;-3.38;100.00;62548.13;5091981;28;20198;-53
2024/01/13 03:44:00;;;;;;;24.50;11.77;;;;;;;-3.64;100.00;62521.19;5073912;28;20218;-53
2024/01/13 03:46:26;;;;;;;24.80;10.70;;;;;;;-3.41;100.00;62548.44;5092115;28;20222;-53
2024/01/13 03:48:51;;;;;;;20.00;10.40;;;;;;;-3.73;97.28;62508.47;5092190;28;20657;-53
2024/01/13 03:51:18;;;;;;;17.23;9.30;;;;;;;-3.83;97.96;62500.69;5073942;28;20528;-55
2024/01/13 03:53:44;;;;;;;21.33;11.37;;;;;;;-3.69;97.16;62513.34;5073813;28;20236;-53
2024/01/13 03:56:10;;;;;;;20.63;9.17;;;;;;;-3.71;96.82;62511.19;5091873;28;20240;-55
2024/01/13 03:58:35;;;;;;;20.97;10.47;;;;;;;-3.93;96.86;62489.94;5073598;28;20219;-53
2024/01/13 04:01:02;;;;;;;18.73;9.23;;;;;;;-3.84;97.24;62499.63;5073633;28;20251;-53
2024/01/13 04:03:28;;;;;;;17.50;9.37;;;;;;;-3.76;99.27;62510.16;5091641;28;20210;-53
2024/01/13 04:05:54;;;;;;;21.23;10.00;;;;;;;-3.77;98.20;62504.16;5091682;28;20216;-53
2024/01/13 04:08:21;;;;;;;20.90;9.50;;;;;;;-3.52;99.25;62528.66;5091602;28;20274;-54
2024/01/13 04:10:46;;;;;;;20.93;9.37;;;;;;;-3.88;97.61;62492.31;5073656;28;20198;-54
2024/01/13 04:13:13;;;;;;;19.97;10.27;;;;;;;-3.74;98.30;62510.41;5091455;28;20695;-55
2024/01/13 04:15:39;;;;;;;19.43;8.83;;;;;;;-3.96;97.69;62486.69;5091815;28;20208;-53
2024/01/13 04:18:05;;;;;;;22.23;9.53;;;;;;;-3.95;99.11;62485.31;5091451;28;20693;-53
2024/01/13 04:20:30;;;;;;;24.93;11.27;;;;;;;-3.97;98.98;62483.16;5091835;28;20190;-53
2024/01/13 04:22:56;;;;;;;20.33;9.77;;;;;;;-3.66;100.00;62518.50;5091735;28;20661;-59
2024/01/13 04:25:23;;;;;;;20.50;10.77;;;;;;;-3.96;99.13;62486.16;5091492;28;20205;-52
2024/01/13 04:27:50;;;;;;;22.43;10.47;;;;;;;-3.93;99.61;62486.91;5091496;28;20213;-53
2024/01/13 04:30:15;;;;;;;21.93;11.13;;;;;;;-3.75;100.00;62509.31;5091396;28;20253;-52
2024/01/13 04:32:42;;;;;;;22.03;11.37;;;;;;;-3.93;98.60;62489.38;5091397;28;20679;-53
2024/01/13 04:35:08;;;;;;;23.70;10.23;;;;;;;-3.86;99.81;62494.47;5091350;28;20186;-53
2024/01/13 04:37:34;;;;;;;24.17;10.60;;;;;;;-3.69;99.78;62513.34;5091194;28;20224;-55
2024/01/13 04:39:59;;;;;;;20.17;9.57;;;;;;;-3.67;97.67;62517.94;5091283;28;20244;-54
2024/01/13 04:42:25;;;;;;;20.00;9.40;;;;;;;-3.90;94.95;62493.16;5073191;28;20214;-53
2024/01/13 04:44:50;;;;;;;20.40;8.67;;;;;;;-4.05;94.53;62476.44;5091060;28;20216;-53
2024/01/13 04:47:16;;;;;;;17.53;9.07;;;;;;;-3.99;94.05;62480.47;5073192;28;20204;-53
2024/01/13 04:49:42;;;;;;;21.27;9.20;;;;;;;-3.96;94.09;62486.69;5072999;28;20279;-53
2024/01/13 04:52:07;;;;;;;17.90;9.23;;;;;;;-3.88;94.36;62497.25;5090185;28;20210;-55
2024/01/13 04:54:33;;;;;;;20.27;8.80;;;;;;;-4.02;94.28;62480.22;5079591;22;20316;-53
2024/01/13 04:57:00;;;;;;;19.13;9.33;;;;;;;-3.87;94.83;62496.38;5070793;28;20285;-52
2024/01/13 04:59:26;;;;;;;17.87;9.17;;;;;;;-3.87;94.16;62495.84;5070963;28;20241;-52
2024/01/13 05:01:52;;;;;;;20.00;9.30;;;;;;;-3.89;93.19;62493.69;5070599;28;20688;-52
2024/01/13 05:04:18;;;;;;;16.57;8.33;;;;;;;-3.84;94.06;62499.63;5070695;28;20222;-55
2024/01/13 05:06:44;;;;;;;18.27;9.40;;;;;;;-3.80;93.26;62503.41;5070679;28;20215;-52
2024/01/13 05:09:11;;;;;;;16.40;8.70;;;;;;;-3.86;92.72;62497.47;5052887;28;20196;-53
2024/01/13 05:11:36;;;;;;;19.90;9.03;;;;;;;-3.86;93.68;62497.47;5070662;28;20182;-52
2024/01/13 05:14:02;;;;;;;19.23;9.80;;;;;;;-3.83;92.39;62500.69;5070832;28;20205;-53
2024/01/13 05:16:27;;;;;;;17.93;9.00;;;;;;;-3.72;91.95;62512.56;5070695;28;20227;-53
2024/01/13 05:18:53;;;;;;;18.47;8.77;;;;;;;-3.65;91.23;62522.03;5070519;28;20298;-54
2024/01/13 05:21:19;;;;;;;18.77;7.97;;;;;;;-3.79;92.05;62502.00;5070579;28;20222;-53
2024/01/13 05:23:44;;;;;;;19.50;9.33;;;;;;;-3.79;92.45;62505.00;5070378;28;20639;-53
2024/01/13 05:26:10;;;;;;;20.73;9.27;;;;;;;-3.62;91.94;62523.34;5070275;28;20210;-53
2024/01/13 05:28:36;;;;;;;19.77;8.77;;;;;;;-3.67;90.67;62517.94;5070482;28;20231;-54
2024/01/13 05:31:02;;;;;;;20.63;8.97;;;;;;;-3.65;90.40;62519.56;5070414;28;20186;-53
2024/01/13 05:33:27;;;;;;;23.10;8.80;;;;;;;-3.67;90.46;62517.41;5070396;28;20602;-53
2024/01/13 05:35:56;;;;;;;22.93;9.23;;;;;;;-3.67;90.69;62515.47;5070455;28;20204;-56
2024/01/13 05:38:22;;;;;;;23.00;9.20;;;;;;;-3.83;90.81;62498.25;5052271;28;20245;-53
2024/01/13 05:40:48;;;;;;;16.60;7.80;;;;;;;-3.85;89.83;62498.53;5070264;28;20224;-52
2024/01/13 05:43:14;;;;;;;17.40;8.53;;;;;;;-3.90;91.44;62490.16;5070114;28;20209;-52
2024/01/13 05:45:40;;;;;;;18.57;8.10;;;;;;;-3.79;91.79;62505.00;5052150;28;20209;-51
2024/01/13 05:48:06;;;;;;;18.60;8.03;;;;;;;-3.79;91.78;62504.47;5070311;28;20219;-54
2024/01/13 05:50:32;;;;;;;18.60;8.83;;;;;;;-4.08;93.10;62470.78;5070102;28;20242;-54
2024/01/13 05:52:57;;;;;;;20.77;8.60;;;;;;;-4.03;93.12;62479.16;5059812;22;20226;-51
2024/01/13 05:55:23;;;;;;;17.53;8.60;;;;;;;-3.89;92.45;62493.69;5052223;28;20202;-52
2024/01/13 05:57:48;;;;;;;19.17;8.80;;;;;;;-4.07;92.67;62474.84;5069883;28;20218;-52
2024/01/13 06:00:14;;;;;;;16.27;8.60;;;;;;;-3.89;93.68;62494.22;5069905;28;20260;-52
2024/01/13 06:02:40;;;;;;;16.63;7.87;;;;;;;-3.81;94.19;62502.84;5051934;28;20222;-52
2024/01/13 06:05:06;;;;;;;18.50;8.47;;;;;;;-3.70;93.28;62514.72;5073336;28;20222;-52
2024/01/13 06:07:32;;;;;;;20.13;8.73;;;;;;;-3.78;93.77;62503.63;5073501;28;20210;-53
2024/01/13 06:09:57;;;;;;;16.93;8.83;;;;;;;-3.70;92.78;62517.19;5073317;28;20188;-52
2024/01/13 06:12:23;;;;;;;18.03;9.03;;;;;;;-3.59;91.60;62526.03;5073290;28;20211;-54
2024/01/13 06:14:49;;;;;;;18.47;8.10;;;;;;;-3.91;91.81;62497.00;5073214;28;20190;-52
2024/01/13 06:17:14;;;;;;;15.80;8.20;;;;;;;-4.00;93.65;62481.84;5073126;28;20229;-53
2024/01/13 06:19:40;;;;;;;18.10;8.07;;;;;;;-3.97;93.89;62485.06;5073222;28;20269;-53
2024/01/13 06:22:05;;;;;;;20.37;9.13;;;;;;;-3.95;94.22;62487.22;5073271;28;20227;-53
2024/01/13 06:24:31;;;;;;;19.50;9.03;;;;;;;-3.96;93.67;62486.69;5073156;28;20749;-53
2024/01/13 06:26:56;;;;;;;18.40;9.40;;;;;;;-3.87;93.72;62495.84;5073521;28;20564;-52
2024/01/13 06:29:22;;;;;;;18.20;9.23;;;;;;;-3.93;93.83;62492.38;5073072;28;20189;-52
2024/01/13 06:31:47;;;;;;;17.63;9.60;;;;;;;-3.83;93.69;62497.69;5073339;28;20224;-53
2024/01/13 06:34:13;;;;;;;23.70;9.27;;;;;;;-3.81;94.35;62502.31;5073056;28;20238;-53
2024/01/13 06:36:39;;;;;;;18.50;9.30;;;;;;;-3.75;93.02;62511.25;5072644;28;20570;-53
2024/01/13 06:39:05;;;;;;;16.07;8.13;;;;;;;-3.77;92.25;62507.16;5055022;28;20199;-55
2024/01/13 06:41:31;;;;;;;15.93;8.20;;;;;;;-3.89;92.85;62498.59;5073238;28;20213;-52
2024/01/13 06:43:56;;;;;;;19.77;9.17;;;;;;;-3.70;92.22;62512.25;5073094;28;20241;-54
2024/01/13 06:46:22;;;;;;;20.47;9.83;;;;;;;-3.80;92.41;62503.41;5072706;28;20218;-53
2024/01/13 06:48:48;;;;;;;18.17;9.87;;;;;;;-4.05;93.88;62477.00;5072700;28;20239;-53
2024/01/13 06:51:14;;;;;;;15.30;8.57;;;;;;;-3.85;93.24;62498.53;5038162;28;20249;-53
2024/01/13 06:53:40;;;;;;;22.03;9.60;;;;;;;-3.64;94.11;62518.72;5054525;28;20221;-53
2024/01/13 06:56:05;;;;;;;17.73;8.47;;;;;;;-3.75;92.04;62508.78;5072442;28;20207;-52
2024/01/13 06:58:31;;;;;;;18.07;8.27;;;;;;;-3.47;91.91;62538.97;5072632;28;20720;-52
2024/01/13 07:00:58;;;;;;;18.70;8.60;;;;;;;-3.44;90.81;62544.66;5072840;28;20190;-53
2024/01/13 07:03:23;;;;;;;16.67;8.93;;;;;;;-3.68;91.51;62516.88;5072467;28;20211;-52
2024/01/13 07:05:49;;;;;;;16.07;8.43;;;;;;;-3.59;91.19;62526.03;5072631;28;20229;-51
2024/01/13 07:08:14;;;;;;;20.10;8.57;;;;;;;-3.58;90.97;62530.13;5054496;28;20212;-53
2024/01/13 07:10:40;;;;;;;17.00;8.47;;;;;;;-3.64;91.29;62521.19;5072720;28;20207;-52
2024/01/13 07:13:06;;;;;;;22.70;10.37;;;;;;;-3.34;89.98;62552.44;5072443;28;20716;-52
2024/01/13 07:15:31;;;;;;;16.73;9.33;;;;;;;-3.25;88.96;62562.69;5071693;28;20669;-53
2024/01/13 07:17:59;;;;;;;17.80;8.87;;;;;;;-3.26;89.13;62561.06;5037640;28;20222;-52
2024/01/13 07:20:26;;;;;;;16.10;9.27;;;;;;;-3.29;88.52;62557.84;5054417;28;20259;-56
2024/01/13 07:22:51;;;;;;;19.00;8.73;;;;;;;-3.42;88.96;62542.44;5072162;28;20207;-51
2024/01/13 07:25:17;;;;;;;19.87;9.77;;;;;;;-3.34;90.30;62555.44;5054300;28;20702;-52
2024/01/13 07:27:42;;;;;;;20.83;10.27;;;;;;;-3.26;89.69;62559.16;5054248;28;20294;-51
2024/01/13 07:30:09;;;;;;;21.87;10.37;;;;;;;-3.39;91.21;62547.06;5054345;28;20327;-54
2024/01/13 07:32:34;;;;;;;20.63;10.73;;;;;;;-3.51;93.64;62535.19;5072212;28;20206;-53
2024/01/13 07:35:00;;;;;;;20.80;9.07;;;;;;;-3.51;93.08;62535.19;5072067;28;20721;-53
2024/01/13 07:37:25;;;;;;;20.50;9.80;;;;;;;-3.42;92.98;62544.38;5072022;28;20218;-52
2024/01/13 07:39:51;;;;;;;16.97;8.90;;;;;;;-3.36;93.67;62550.84;5070856;28;20563;-52
2024/01/13 07:42:17;;;;;;;19.43;9.43;;;;;;;-3.37;93.08;62546.75;5070542;28;20213;-52
2024/01/13 07:44:44;;;;;;;21.43;9.47;;;;;;;-3.18;93.45;62569.69;5072066;28;20223;-53
2024/01/13 07:47:09;;;;;;;19.97;10.53;;;;;;;-3.23;92.39;62564.31;5053873;28;20211;-54
2024/01/13 07:49:35;;;;;;;19.67;9.37;;;;;;;-3.28;94.53;62558.91;5071968;28;20715;-53
2024/01/13 07:52:01;;;;;;;18.13;9.63;;;;;;;-3.40;94.25;62546.53;5053967;28;20273;-53
2024/01/13 07:54:27;;;;;;;17.13;9.37;;;;;;;-3.26;93.90;62558.59;5053803;28;20643;-53
2024/01/13 07:56:53;;;;;;;19.13;9.87;;;;;;;-3.63;95.03;62522.25;5071526;28;20210;-54
2024/01/13 07:59:25;;;;;;;19.27;9.83;;;;;;;-3.32;95.50;62554.59;5037058;28;20340;-55
2024/01/13 08:01:50;;;;;;;21.23;10.80;;;;;;;-3.44;95.10;62542.75;5071578;28;20268;-55
2024/01/13 08:04:16;;;;;;;17.43;9.07;;;;;;;-3.45;95.26;62544.13;5071646;28;20192;-53
2024/01/13 08:06:42;;;;;;;19.43;9.50;;;;;;;-3.37;94.79;62549.22;5071792;28;20649;-53
2024/01/13 08:09:07;;;;;;;22.20;10.50;;;;;;;-3.36;95.17;62547.81;5071495;28;20192;-53
2024/01/13 08:11:33;;;;;;;22.27;9.80;;;;;;;-3.28;94.80;62557.00;5070627;28;20219;-53
2024/01/13 08:14:00;;;;;;;22.63;10.43;;;;;;;-3.34;93.77;62554.91;5071491;28;20204;-53
2024/01/13 08:16:26;;;;;;;20.83;9.47;;;;;;;-3.19;93.80;62568.63;5071427;28;20204;-53
2024/01/13 08:18:52;;;;;;;20.90;9.70;;;;;;;-3.23;92.96;62564.31;5071352;28;20573;-53
2024/01/13 08:21:18;;;;;;;25.03;9.97;;;;;;;-2.71;90.64;62617.94;5053686;28;20194;-53
2024/01/13 08:23:44;;;;;;;23.97;10.30;;;;;;;-2.27;87.52;62667.91;5071314;28;20738;-53
2024/01/13 08:26:10;;;;;;;20.00;8.10;;;;;;;-2.10;84.56;62688.72;5052300;28;20213;-53
2024/01/13 08:28:36;;;;;;;20.57;8.60;;;;;;;-2.18;84.28;62677.59;5052438;28;20309;-53
2024/01/13 08:31:01;;;;;;;16.60;8.93;;;;;;;-2.34;85.21;62662.81;5053344;28;20326;-54
2024/01/13 08:33:27;;;;;;;17.87;9.00;;;;;;;-2.31;83.64;62663.59;5071257;28;20226;-54
2024/01/13 08:35:52;;;;;;;16.63;8.43;;;;;;;-2.18;85.71;62680.06;5053334;28;20200;-54
2024/01/13 08:38:18;;;;;;;14.60;8.37;;;;;;;-2.41;84.73;62652.78;5071237;28;20303;-54
2024/01/13 08:40:45;;;;;;;15.23;8.27;;;;;;;-2.29;84.16;62668.22;5071197;28;20183;-55
2024/01/13 08:43:11;;;;;;;15.30;7.47;;;;;;;-2.08;83.28;62688.41;5071126;28;20213;-54
2024/01/13 08:45:37;;;;;;;13.13;7.27;;;;;;;-2.14;83.05;62681.94;5070949;28;20218;-55
2024/01/13 08:48:03;;;;;;;16.83;7.67;;;;;;;-2.19;82.42;62676.53;5078642;22;20630;-54
2024/01/13 08:50:28;;;;;;;19.73;7.93;;;;;;;-2.23;82.86;62667.28;5070909;28;20228;-54
2024/01/13 08:52:55;;;;;;;16.00;7.87;;;;;;;-2.12;81.46;62684.09;5070891;28;20672;-54
2024/01/13 08:55:29;;;;;;;15.00;7.30;;;;;;;-1.99;81.02;62695.13;5036444;28;20184;-54
2024/01/13 08:57:55;;;;;;;14.07;6.37;;;;;;;-2.02;78.94;62697.34;5071192;28;20258;-53
2024/01/13 09:00:22;;;;;;;15.97;7.57;;;;;;;-1.52;76.98;62745.34;5070821;28;20578;-54
2024/01/13 09:02:47;;;;;;;10.97;6.77;;;;;;;-0.95;75.54;62807.50;5070849;28;20220;-53
2024/01/13 09:05:13;;;;;;;11.33;6.47;;;;;;;-0.91;73.17;62808.84;5070854;28;20676;-55
2024/01/13 09:07:38;;;;;;;13.27;5.97;;;;;;;-1.26;73.86;62775.94;5052425;28;20247;-53
2024/01/13 09:10:05;;;;;;;9.33;5.77;;;;;;;-1.40;74.52;62766.28;5070861;28;20673;-52
2024/01/13 09:12:30;;;;;;;12.00;6.60;;;;;;;-1.47;75.94;62753.75;5070653;28;20693;-51
2024/01/13 09:14:56;;;;;;;10.87;6.50;;;;;;;-1.61;76.39;62735.63;5070720;28;20214;-52
2024/01/13 09:17:22;;;;;;;10.97;5.43;;;;;;;-1.35;75.59;62764.25;5070485;28;20629;-54
2024/01/13 09:19:48;;;;;;;12.37;6.40;;;;;;;-1.25;75.31;62777.03;5052550;28;20694;-53
2024/01/13 09:22:14;;;;;;;12.03;6.07;;;;;;;-0.53;72.26;62854.88;5070372;28;20631;-53
2024/01/13 09:24:43;;;;;;;10.10;6.13;;;;;;;0.11;68.60;62920.56;5070580;28;20208;-53
2024/01/13 09:27:09;;;;;;;11.23;6.30;;;;;;;-0.16;68.82;62894.34;5052426;28;20597;-54
2024/01/13 09:29:35;;;;;;;13.00;7.27;;;;;;;-0.36;69.64;62872.69;5070193;28;20237;-52
2024/01/13 09:32:04;;;;;;;13.57;6.90;;;;;;;-0.93;71.83;62811.59;5070204;28;20226;-53
2024/01/13 09:34:30;;;;;;;8.70;5.57;;;;;;;-1.33;74.68;62766.44;5070226;28;20655;-53
2024/01/13 09:36:56;;;;;;;13.80;6.80;;;;;;;-1.38;75.25;62762.97;5070222;28;20342;-54
2024/01/13 09:39:22;;;;;;;13.97;7.43;;;;;;;-1.26;75.76;62778.41;5072653;28;20227;-53
2024/01/13 09:41:48;;;;;;;8.67;5.43;;;;;;;-1.48;75.46;62752.16;5073722;28;20231;-52
2024/01/13 09:44:22;;;;;;;16.30;6.50;;;;;;;-1.07;74.86;62798.94;5081305;22;20581;-53
2024/01/13 09:46:52;;;;;;;12.30;6.60;;;;;;;0.25;72.19;62935.72;5073626;28;20721;-54
2024/01/13 09:49:19;;;;;;;13.60;7.27;;;;;;;0.49;67.33;62964.19;5073458;28;20284;-53
2024/01/13 09:51:48;;;;;;;11.80;6.87;;;;;;;0.50;64.15;62965.81;5073798;28;20205;-52
2024/01/13 09:54:29;;;;;;;8.90;5.73;;;;;;;0.93;63.16;63009.34;5073736;28;20294;-52
2024/01/13 09:56:56;;;;;;;10.40;6.00;;;;;;;0.60;62.75;62976.09;5073555;28;20208;-53
2024/01/13 09:59:25;;;;;;;10.17;5.70;;;;;;;0.45;63.76;62957.91;5073735;28;20275;-53
2024/01/13 10:01:52;;;;;;;9.07;5.50;;;;;;;0.47;63.64;62957.06;5055721;28;20342;-53
2024/01/13 10:04:19;;;;;;;11.47;6.20;;;;;;;0.25;64.31;62938.19;5055569;28;20257;-53
2024/01/13 10:06:50;;;;;;;11.77;6.33;;;;;;;0.20;64.10;62933.34;5073502;28;20192;-55
2024/01/13 10:09:16;;;;;;;11.03;6.10;;;;;;;-0.22;67.08;62888.41;5073459;28;20197;-53
2024/01/13 10:11:42;;;;;;;12.07;6.00;;;;;;;-0.32;68.13;62875.09;5073298;28;20584;-55
2024/01/13 10:14:11;;;;;;;14.67;6.70;;;;;;;-0.24;68.38;62886.22;5073443;28;20526;-52
2024/01/13 10:16:37;;;;;;;9.73;5.80;;;;;;;-0.22;66.69;62890.88;5073146;28;20242;-53
2024/01/13 10:19:07;;;;;;;10.00;5.67;;;;;;;-0.28;66.88;62881.34;5073152;28;20209;-53
2024/01/13 10:21:34;;;;;;;12.27;5.87;;;;;;;-0.51;67.72;62857.03;5073175;28;20181;-55
2024/01/13 10:24:03;;;;;;;10.07;5.77;;;;;;;-0.50;69.27;62858.09;5073362;28;20197;-53
2024/01/13 10:26:30;;;;;;;13.47;6.33;;;;;;;0.08;67.68;62919.78;5054688;28;20208;-54
2024/01/13 10:28:57;;;;;;;10.27;5.43;;;;;;;0.28;63.78;62939.50;5072998;28;20230;-52
2024/01/13 10:31:23;;;;;;;14.07;6.20;;;;;;;0.71;63.69;62988.53;5038490;28;20261;-52
2024/01/13 10:33:49;;;;;;;9.67;5.53;;;;;;;0.70;62.83;62986.94;5073173;28;20693;-54
2024/01/13 10:36:16;;;;;;;14.27;7.20;;;;;;;0.81;64.27;62999.38;5073064;28;20238;-52
2024/01/13 10:38:43;;;;;;;9.70;5.40;;;;;;;0.51;63.60;62966.88;5038433;28;20596;-52
2024/01/13 10:41:09;;;;;;;13.97;7.27;;;;;;;0.83;63.58;63001.56;5054863;28;20196;-53
2024/01/13 10:43:40;;;;;;;10.87;5.87;;;;;;;0.92;62.20;63013.25;5073050;28;20217;-53
2024/01/13 10:46:13;;;;;;;14.67;6.73;;;;;;;1.72;61.02;63091.97;5072686;28;20212;-53
2024/01/13 10:48:47;;;;;;;8.97;5.60;;;;;;;1.25;61.38;63041.56;5072984;28;20205;-54
2024/01/13 10:51:39;;;;;;;13.87;5.73;;;;;;;1.11;60.83;63030.81;5053690;28;20197;-55
2024/01/13 10:54:07;;;;;;;10.97;6.60;;;;;;;1.47;60.52;63069.84;5040644;28;20578;-54
2024/01/13 10:56:37;;;;;;;17.20;6.37;;;;;;;1.09;61.87;63029.16;5071586;28;20221;-56
2024/01/13 10:59:04;;;;;;;12.10;5.97;;;;;;;1.02;61.88;63018.56;5072723;28;20242;-53
2024/01/13 11:01:31;;;;;;;11.97;6.53;;;;;;;0.92;61.40;63010.75;5072589;28;20253;-53
2024/01/13 11:03:58;;;;;;;12.23;6.57;;;;;;;0.50;63.43;62962.78;5073417;28;20189;-52
2024/01/13 11:06:30;;;;;;;9.60;5.93;;;;;;;0.93;62.71;63011.31;5072483;28;20228;-51
2024/01/13 11:08:56;;;;;;;11.37;6.23;;;;;;;1.54;60.06;63075.47;5054720;28;20193;-54
2024/01/13 11:11:28;;;;;;;10.37;5.77;;;;;;;1.94;58.47;63120.25;5072633;28;20211;-53
2024/01/13 11:14:05;;;;;;;9.63;5.83;;;;;;;1.88;58.68;63111.28;5054242;28;20267;-52
2024/01/13 11:16:34;;;;;;;11.63;6.63;;;;;;;2.78;59.30;63208.38;5072269;28;20176;-54
2024/01/13 11:19:00;;;;;;;9.27;5.53;;;;;;;1.86;57.87;63109.09;5037648;28;20734;-53